Time;durP1;ratioP1;P1;durP2;ratioP2;P2;SDS_P1;SDS_P2;PMS_P1;PMS_P2;Temp;Humidity;BMP_temperature;BMP_pressure;BME280_temperature;BME280_humidity;BME280_pressure;Samples;Min_cycle;Max_cycle;Signal;HPM_P1;HPM_P2
2021/09/22 00:00:55;;;;;;;;;;;18.70;64.30;;;;;;5023251;28;20019;-65
2021/09/22 00:03:20;;;;;;;;;;;18.70;64.40;;;;;;5023546;28;20654;-66
2021/09/22 00:05:46;;;;;;;;;;;18.70;64.30;;;;;;5023064;28;19971;-65
2021/09/22 00:08:11;;;;;;;;;;;18.70;64.40;;;;;;5023896;28;19917;-65
2021/09/22 00:10:37;;;;;;;;;;;18.70;64.40;;;;;;5022319;28;19925;-65
2021/09/22 00:13:02;;;;;;;;;;;18.70;64.40;;;;;;5024139;28;20316;-63
2021/09/22 00:15:28;;;;;;;;;;;18.70;64.40;;;;;;5022492;28;19952;-65
2021/09/22 00:17:53;;;;;;;;;;;18.70;64.40;;;;;;5021892;28;19929;-65
2021/09/22 00:20:24;;;;;;;;;;;18.70;64.30;;;;;;5023992;28;19921;-65
2021/09/22 00:22:50;;;;;;;;;;;18.70;64.40;;;;;;5023881;28;19921;-62
2021/09/22 00:25:15;;;;;;;;;;;18.70;64.50;;;;;;5024258;28;20331;-66
2021/09/22 00:27:42;;;;;;;;;;;18.70;64.40;;;;;;5022077;28;19928;-65
2021/09/22 00:30:08;;;;;;;;;;;18.70;64.30;;;;;;5023687;28;19925;-66
2021/09/22 00:32:33;;;;;;;;;;;18.70;64.40;;;;;;5023941;28;19925;-65
2021/09/22 00:34:59;;;;;;;;;;;18.70;64.30;;;;;;5023261;28;19925;-65
2021/09/22 00:37:24;;;;;;;;;;;18.70;64.40;;;;;;5023670;28;19921;-66
2021/09/22 00:39:49;;;;;;;;;;;18.70;64.20;;;;;;5023672;28;19928;-65
2021/09/22 00:42:15;;;;;;;;;;;18.70;64.50;;;;;;5024069;28;20510;-65
2021/09/22 00:44:55;;;;;;;;;;;18.70;64.40;;;;;;5023483;28;19925;-65
2021/09/22 00:47:21;;;;;;;;;;;18.70;64.50;;;;;;5024281;28;19917;-65
2021/09/22 00:49:46;;;;;;;;;;;18.70;64.60;;;;;;5023333;28;19940;-65
2021/09/22 00:52:15;;;;;;;;;;;18.70;64.50;;;;;;5023562;28;19917;-65
2021/09/22 00:54:40;;;;;;;;;;;18.70;64.50;;;;;;5023025;28;19917;-66
2021/09/22 00:57:06;;;;;;;;;;;18.70;64.50;;;;;;5023867;28;19947;-65
2021/09/22 00:59:31;;;;;;;;;;;18.60;64.40;;;;;;5023108;28;19924;-65
2021/09/22 01:01:58;;;;;;;;;;;18.60;64.50;;;;;;5026239;28;20348;-65
2021/09/22 01:04:23;;;;;;;;;;;18.70;64.50;;;;;;5027642;28;19921;-66
2021/09/22 01:06:48;;;;;;;;;;;18.70;64.50;;;;;;5022448;28;20394;-66
2021/09/22 01:09:14;;;;;;;;;;;18.70;64.40;;;;;;5027305;28;19917;-65
2021/09/22 01:11:39;;;;;;;;;;;18.70;64.40;;;;;;5022721;28;19921;-65
2021/09/22 01:14:05;;;;;;;;;;;18.70;64.50;;;;;;5026346;28;20359;-65
2021/09/22 01:16:30;;;;;;;;;;;18.70;64.50;;;;;;5027046;28;19932;-65
2021/09/22 01:18:56;;;;;;;;;;;18.70;64.50;;;;;;5028280;28;19917;-65
2021/09/22 01:21:21;;;;;;;;;;;18.60;64.50;;;;;;5028029;28;20438;-66
2021/09/22 01:23:47;;;;;;;;;;;18.70;64.50;;;;;;5027096;28;19971;-66
2021/09/22 01:26:12;;;;;;;;;;;18.70;64.40;;;;;;5026762;28;19929;-65
2021/09/22 01:28:37;;;;;;;;;;;18.60;64.40;;;;;;5025883;28;20330;-65
2021/09/22 01:31:03;;;;;;;;;;;18.60;64.50;;;;;;5025285;28;19917;-65
2021/09/22 01:33:28;;;;;;;;;;;18.60;64.50;;;;;;5026710;28;19924;-65
2021/09/22 01:35:54;;;;;;;;;;;18.60;64.40;;;;;;5026377;28;20293;-65
2021/09/22 01:38:23;;;;;;;;;;;18.60;64.50;;;;;;5026918;28;19925;-65
2021/09/22 01:40:53;;;;;;;;;;;18.70;64.50;;;;;;5026412;28;19917;-65
2021/09/22 01:43:18;;;;;;;;;;;18.60;64.50;;;;;;5026876;28;20034;-65
2021/09/22 01:45:43;;;;;;;;;;;18.60;64.40;;;;;;5019918;28;19929;-66
2021/09/22 01:48:09;;;;;;;;;;;18.60;64.50;;;;;;5025239;28;20403;-64
2021/09/22 01:50:34;;;;;;;;;;;18.70;64.50;;;;;;5026509;28;19924;-66
2021/09/22 01:53:00;;;;;;;;;;;18.60;64.50;;;;;;5025675;28;19921;-66
2021/09/22 01:55:25;;;;;;;;;;;18.60;64.50;;;;;;5026178;28;19921;-66
2021/09/22 01:57:51;;;;;;;;;;;18.60;64.50;;;;;;5026795;28;20483;-66
2021/09/22 02:00:16;;;;;;;;;;;18.60;64.40;;;;;;5026981;28;19971;-66
2021/09/22 02:02:42;;;;;;;;;;;18.60;64.40;;;;;;5026311;28;19917;-66
2021/09/22 02:05:07;;;;;;;;;;;18.60;64.50;;;;;;5026344;28;19925;-66
2021/09/22 02:07:32;;;;;;;;;;;18.60;64.50;;;;;;5026731;28;20399;-66
2021/09/22 02:09:59;;;;;;;;;;;18.60;64.40;;;;;;5026170;28;20387;-66
2021/09/22 02:12:25;;;;;;;;;;;18.60;64.50;;;;;;5026223;28;19924;-64
2021/09/22 02:14:50;;;;;;;;;;;18.60;64.50;;;;;;5026839;28;19933;-66
2021/09/22 02:17:16;;;;;;;;;;;18.60;64.50;;;;;;5025748;28;19947;-63
2021/09/22 02:19:41;;;;;;;;;;;18.60;64.20;;;;;;5025908;28;19925;-64
2021/09/22 02:22:07;;;;;;;;;;;18.60;64.40;;;;;;5025954;28;19921;-64
2021/09/22 02:24:32;;;;;;;;;;;18.60;64.40;;;;;;5026180;28;20470;-64
2021/09/22 02:26:58;;;;;;;;;;;18.60;64.50;;;;;;5025329;28;19951;-64
2021/09/22 02:29:25;;;;;;;;;;;18.60;64.40;;;;;;5024613;28;19924;-65
2021/09/22 02:31:50;;;;;;;;;;;18.60;64.40;;;;;;5025914;28;19917;-64
2021/09/22 02:34:15;;;;;;;;;;;18.60;64.50;;;;;;5025710;28;20296;-66
2021/09/22 02:36:41;;;;;;;;;;;18.60;64.50;;;;;;5025611;28;19917;-67
2021/09/22 02:39:06;;;;;;;;;;;18.70;64.50;;;;;;5025828;28;19957;-67
2021/09/22 02:41:32;;;;;;;;;;;18.60;64.50;;;;;;5026404;28;20176;-66
2021/09/22 02:43:58;;;;;;;;;;;18.60;64.40;;;;;;5024243;28;19921;-65
2021/09/22 02:46:24;;;;;;;;;;;18.60;64.20;;;;;;5025835;28;20334;-66
2021/09/22 02:48:49;;;;;;;;;;;18.60;64.30;;;;;;5025891;28;19917;-66
2021/09/22 02:51:15;;;;;;;;;;;18.60;64.40;;;;;;5025234;28;20199;-66
2021/09/22 02:53:40;;;;;;;;;;;18.60;64.40;;;;;;5024977;28;19921;-67
2021/09/22 02:56:06;;;;;;;;;;;18.60;64.30;;;;;;5025232;28;19931;-66
2021/09/22 02:58:31;;;;;;;;;;;18.60;64.30;;;;;;5025228;28;20397;-66
2021/09/22 03:00:57;;;;;;;;;;;18.60;64.40;;;;;;5024900;28;19925;-66
2021/09/22 03:03:22;;;;;;;;;;;18.60;64.40;;;;;;5025425;28;19917;-66
2021/09/22 03:05:48;;;;;;;;;;;18.60;64.40;;;;;;5024614;28;19940;-65
2021/09/22 03:08:13;;;;;;;;;;;18.60;64.50;;;;;;5024674;28;19941;-63
2021/09/22 03:10:39;;;;;;;;;;;18.60;64.50;;;;;;5025210;28;19917;-65
2021/09/22 03:13:04;;;;;;;;;;;18.60;64.50;;;;;;5025089;28;19929;-65
2021/09/22 03:15:30;;;;;;;;;;;18.60;64.40;;;;;;5025331;28;20417;-66
2021/09/22 03:17:55;;;;;;;;;;;18.60;64.30;;;;;;5025038;28;19925;-66
2021/09/22 03:20:21;;;;;;;;;;;18.60;64.40;;;;;;5025991;28;19917;-65
2021/09/22 03:22:46;;;;;;;;;;;18.60;64.40;;;;;;5024789;28;19917;-66
2021/09/22 03:25:12;;;;;;;;;;;18.60;64.40;;;;;;5025273;28;20269;-66
2021/09/22 03:27:37;;;;;;;;;;;18.60;64.30;;;;;;5025435;28;19921;-66
2021/09/22 03:30:06;;;;;;;;;;;18.60;65.00;;;;;;5024915;28;19921;-66
2021/09/22 03:32:32;;;;;;;;;;;18.60;64.40;;;;;;5026123;28;20041;-65
2021/09/22 03:34:57;;;;;;;;;;;18.60;64.50;;;;;;5024605;28;20007;-66
2021/09/22 03:37:23;;;;;;;;;;;18.60;64.50;;;;;;5025289;28;20372;-66
2021/09/22 03:39:48;;;;;;;;;;;18.60;64.40;;;;;;5022762;28;19924;-66
2021/09/22 03:42:13;;;;;;;;;;;18.60;64.40;;;;;;5024716;28;19921;-66
2021/09/22 03:44:39;;;;;;;;;;;18.60;64.40;;;;;;5024308;28;20352;-67
2021/09/22 03:47:04;;;;;;;;;;;18.60;64.50;;;;;;5024310;28;19971;-65
2021/09/22 03:49:30;;;;;;;;;;;18.60;64.50;;;;;;5022906;28;19971;-66
2021/09/22 03:51:55;;;;;;;;;;;18.60;64.30;;;;;;5024454;28;19921;-66
2021/09/22 03:54:21;;;;;;;;;;;18.60;64.00;;;;;;5021754;28;20364;-65
2021/09/22 03:56:46;;;;;;;;;;;18.60;64.20;;;;;;5023162;28;19929;-66
2021/09/22 03:59:12;;;;;;;;;;;18.60;64.40;;;;;;5024083;28;19917;-67
2021/09/22 04:01:37;;;;;;;;;;;18.60;63.90;;;;;;5024977;28;20016;-66
2021/09/22 04:04:03;;;;;;;;;;;18.70;63.90;;;;;;5024456;28;19921;-65
2021/09/22 04:06:28;;;;;;;;;;;18.70;63.80;;;;;;5024211;28;20020;-66
2021/09/22 04:08:53;;;;;;;;;;;18.60;64.30;;;;;;5024223;28;19917;-65
2021/09/22 04:11:19;;;;;;;;;;;18.60;62.30;;;;;;5024167;28;19943;-65
2021/09/22 04:13:44;;;;;;;;;;;18.60;64.20;;;;;;5023798;28;20299;-65
2021/09/22 04:16:10;;;;;;;;;;;18.60;64.50;;;;;;5024366;28;19925;-65
2021/09/22 04:18:36;;;;;;;;;;;18.60;64.30;;;;;;5023615;28;19924;-65
2021/09/22 04:21:01;;;;;;;;;;;18.50;64.60;;;;;;5023796;28;19917;-65
2021/09/22 04:23:26;;;;;;;;;;;18.60;64.70;;;;;;5023671;28;19982;-65
2021/09/22 04:25:52;;;;;;;;;;;18.60;64.60;;;;;;5023458;28;19925;-65
2021/09/22 04:28:17;;;;;;;;;;;18.50;64.50;;;;;;5023389;28;19925;-65
2021/09/22 04:30:43;;;;;;;;;;;18.60;64.20;;;;;;5023683;28;19921;-65
2021/09/22 04:33:08;;;;;;;;;;;18.60;64.40;;;;;;5023548;28;19947;-66
2021/09/22 04:35:34;;;;;;;;;;;18.60;64.80;;;;;;5023508;28;20252;-64
2021/09/22 04:38:00;;;;;;;;;;;18.60;65.00;;;;;;5023815;28;20212;-65
2021/09/22 04:40:28;;;;;;;;;;;18.60;64.70;;;;;;5026542;28;20877;-65
2021/09/22 04:42:54;;;;;;;;;;;18.60;64.80;;;;;;5028403;28;19979;-66
2021/09/22 04:45:22;;;;;;;;;;;18.60;64.80;;;;;;5024328;28;19968;-65
2021/09/22 04:47:47;;;;;;;;;;;18.60;64.50;;;;;;5026630;28;19948;-65
2021/09/22 04:50:13;;;;;;;;;;;18.60;64.70;;;;;;5026096;28;20280;-65
2021/09/22 04:52:38;;;;;;;;;;;18.60;64.80;;;;;;5025793;28;19913;-64
2021/09/22 04:55:04;;;;;;;;;;;18.60;64.70;;;;;;5024423;28;19971;-65
2021/09/22 04:57:29;;;;;;;;;;;18.60;64.20;;;;;;5024197;28;20012;-66
2021/09/22 04:59:55;;;;;;;;;;;18.60;64.80;;;;;;5023384;28;20460;-67
2021/09/22 05:02:20;;;;;;;;;;;18.60;64.70;;;;;;5023279;28;19921;-66
2021/09/22 05:04:46;;;;;;;;;;;18.60;64.30;;;;;;5023449;28;19917;-66
2021/09/22 05:07:11;;;;;;;;;;;18.60;64.80;;;;;;5022922;28;19983;-65
2021/09/22 05:09:36;;;;;;;;;;;18.60;64.70;;;;;;5023004;28;19925;-64
2021/09/22 05:12:02;;;;;;;;;;;18.60;64.80;;;;;;5023699;28;19921;-65
2021/09/22 05:14:27;;;;;;;;;;;18.60;64.50;;;;;;5022276;28;20391;-65
2021/09/22 05:16:53;;;;;;;;;;;18.60;64.60;;;;;;5023116;28;19929;-66
2021/09/22 05:19:19;;;;;;;;;;;18.60;64.60;;;;;;5023423;28;19928;-64
2021/09/22 05:21:45;;;;;;;;;;;18.60;64.10;;;;;;5024343;28;19920;-64
2021/09/22 05:24:11;;;;;;;;;;;18.60;64.10;;;;;;5025493;28;19917;-66
2021/09/22 05:26:36;;;;;;;;;;;18.60;64.50;;;;;;5028354;28;19917;-66
2021/09/22 05:29:02;;;;;;;;;;;18.60;65.20;;;;;;5027257;28;19924;-67
2021/09/22 05:31:27;;;;;;;;;;;18.60;66.60;;;;;;5023943;28;19917;-65
2021/09/22 05:33:52;;;;;;;;;;;18.60;66.20;;;;;;5024669;28;19952;-65
2021/09/22 05:36:18;;;;;;;;;;;18.60;66.30;;;;;;5023436;28;19913;-66
2021/09/22 05:38:43;;;;;;;;;;;18.60;66.40;;;;;;5024266;28;19944;-67
2021/09/22 05:41:09;;;;;;;;;;;18.60;66.50;;;;;;5025563;28;20390;-67
2021/09/22 05:43:34;;;;;;;;;;;18.60;66.30;;;;;;5025243;28;19913;-66
2021/09/22 05:46:00;;;;;;;;;;;18.60;66.30;;;;;;5026685;28;19987;-65
2021/09/22 05:48:25;;;;;;;;;;;18.60;66.00;;;;;;5028404;28;19913;-66
2021/09/22 05:50:51;;;;;;;;;;;18.70;65.60;;;;;;5028469;28;19919;-65
2021/09/22 05:53:16;;;;;;;;;;;18.60;65.40;;;;;;5028246;28;19913;-66
2021/09/22 05:55:42;;;;;;;;;;;18.70;64.40;;;;;;5027930;28;19913;-65
2021/09/22 05:58:07;;;;;;;;;;;18.70;64.60;;;;;;5026230;28;20354;-63
2021/09/22 06:00:33;;;;;;;;;;;18.60;64.20;;;;;;5030180;28;19927;-66
2021/09/22 06:02:58;;;;;;;;;;;18.70;64.10;;;;;;5029052;28;19913;-66
2021/09/22 06:05:23;;;;;;;;;;;18.60;64.60;;;;;;5027812;28;19917;-66
2021/09/22 06:07:49;;;;;;;;;;;18.70;65.30;;;;;;5027346;28;20370;-64
2021/09/22 06:10:14;;;;;;;;;;;18.60;65.10;;;;;;5027339;28;19968;-67
2021/09/22 06:12:40;;;;;;;;;;;18.60;64.70;;;;;;5027788;28;19928;-66
2021/09/22 06:15:05;;;;;;;;;;;18.70;64.40;;;;;;5027317;28;19913;-65
2021/09/22 06:17:31;;;;;;;;;;;18.60;64.30;;;;;;5026042;28;19921;-63
2021/09/22 06:19:56;;;;;;;;;;;18.60;64.20;;;;;;5028657;28;19920;-68
2021/09/22 06:22:25;;;;;;;;;;;18.60;63.70;;;;;;5026651;28;20284;-66
2021/09/22 06:24:51;;;;;;;;;;;18.60;63.80;;;;;;5027298;28;19963;-66
2021/09/22 06:27:16;;;;;;;;;;;18.60;64.10;;;;;;5027634;28;19913;-66
2021/09/22 06:29:42;;;;;;;;;;;18.60;64.10;;;;;;5027851;28;19913;-66
2021/09/22 06:32:07;;;;;;;;;;;18.60;64.10;;;;;;5028460;28;19917;-65
2021/09/22 06:34:33;;;;;;;;;;;18.60;64.30;;;;;;5028087;28;19939;-65
2021/09/22 06:36:58;;;;;;;;;;;18.60;64.50;;;;;;5029116;28;19921;-66
2021/09/22 06:39:24;;;;;;;;;;;18.70;64.60;;;;;;5028298;28;20246;-66
2021/09/22 06:41:49;;;;;;;;;;;18.70;64.50;;;;;;5028153;28;19925;-66
2021/09/22 06:44:14;;;;;;;;;;;18.70;64.90;;;;;;5028482;28;20316;-65
2021/09/22 06:46:40;;;;;;;;;;;18.80;64.00;;;;;;5027989;28;19924;-66
2021/09/22 06:49:05;;;;;;;;;;;18.80;63.90;;;;;;5029251;28;19924;-66
2021/09/22 06:51:31;;;;;;;;;;;18.80;64.00;;;;;;5027394;28;20280;-65
2021/09/22 06:53:56;;;;;;;;;;;18.80;64.00;;;;;;5026856;28;19913;-65
2021/09/22 06:56:24;;;;;;;;;;;18.80;63.60;;;;;;5026607;28;19917;-67
2021/09/22 06:58:50;;;;;;;;;;;18.70;63.60;;;;;;5024853;28;19913;-65
2021/09/22 07:01:15;;;;;;;;;;;18.80;63.50;;;;;;5028226;28;20399;-65
2021/09/22 07:03:40;;;;;;;;;;;18.70;63.60;;;;;;5027585;28;19917;-66
2021/09/22 07:06:09;;;;;;;;;;;18.70;65.00;;;;;;5027631;28;19917;-66
2021/09/22 07:08:34;;;;;;;;;;;18.60;66.30;;;;;;5026509;28;19992;-66
2021/09/22 07:10:59;;;;;;;;;;;18.70;66.50;;;;;;5026702;28;20003;-65
2021/09/22 07:13:25;;;;;;;;;;;18.60;67.70;;;;;;5026471;28;19913;-65
2021/09/22 07:15:50;;;;;;;;;;;18.60;66.80;;;;;;5026809;28;19924;-66
2021/09/22 07:18:18;;;;;;;;;;;18.70;66.40;;;;;;5025599;28;19924;-66
2021/09/22 07:20:43;;;;;;;;;;;18.60;66.80;;;;;;5026287;28;19988;-66
2021/09/22 07:23:09;;;;;;;;;;;18.60;66.20;;;;;;5025591;28;19992;-66
2021/09/22 07:25:34;;;;;;;;;;;18.60;66.20;;;;;;5025838;28;19917;-66
2021/09/22 07:28:00;;;;;;;;;;;18.70;65.60;;;;;;5025346;28;19913;-66
2021/09/22 07:30:25;;;;;;;;;;;18.60;65.40;;;;;;5024532;28;19913;-66
2021/09/22 07:32:51;;;;;;;;;;;18.60;66.30;;;;;;5025297;28;19920;-66
2021/09/22 07:35:16;;;;;;;;;;;18.60;66.10;;;;;;5024762;28;19939;-65
2021/09/22 07:37:42;;;;;;;;;;;18.60;65.50;;;;;;5024340;28;19917;-65
2021/09/22 07:40:08;;;;;;;;;;;18.60;65.50;;;;;;5025401;28;19952;-66
2021/09/22 07:42:33;;;;;;;;;;;18.60;66.10;;;;;;5025679;28;19929;-66
2021/09/22 07:44:59;;;;;;;;;;;18.60;66.30;;;;;;5024340;28;19960;-66
2021/09/22 07:47:24;;;;;;;;;;;18.70;65.60;;;;;;5025160;28;19913;-66
2021/09/22 07:49:50;;;;;;;;;;;18.60;65.60;;;;;;5024146;28;19913;-66
2021/09/22 07:52:15;;;;;;;;;;;18.60;66.20;;;;;;5024954;28;20386;-66
2021/09/22 07:54:41;;;;;;;;;;;18.60;66.00;;;;;;5024822;28;19921;-66
2021/09/22 07:57:06;;;;;;;;;;;18.60;66.30;;;;;;5025831;28;20055;-66
2021/09/22 07:59:32;;;;;;;;;;;18.60;65.00;;;;;;5024698;28;19951;-66
2021/09/22 08:01:57;;;;;;;;;;;18.60;65.70;;;;;;5024911;28;19913;-67
2021/09/22 08:04:23;;;;;;;;;;;18.60;65.80;;;;;;5025015;28;20431;-66
2021/09/22 08:06:48;;;;;;;;;;;18.60;65.40;;;;;;5024686;28;19970;-66
2021/09/22 08:09:14;;;;;;;;;;;18.60;65.80;;;;;;5024468;28;19944;-67
2021/09/22 08:11:39;;;;;;;;;;;18.60;65.60;;;;;;5023576;28;19917;-66
2021/09/22 08:14:05;;;;;;;;;;;18.60;65.30;;;;;;5024886;28;19924;-66
2021/09/22 08:16:30;;;;;;;;;;;18.60;64.80;;;;;;5024492;28;20721;-66
2021/09/22 08:18:56;;;;;;;;;;;18.50;65.50;;;;;;5024295;28;19917;-66
2021/09/22 08:21:21;;;;;;;;;;;18.50;65.90;;;;;;5024216;28;20303;-66
2021/09/22 08:23:47;;;;;;;;;;;18.60;66.10;;;;;;5024243;28;19913;-64
2021/09/22 08:26:12;;;;;;;;;;;18.50;65.60;;;;;;5024537;28;19917;-66
2021/09/22 08:28:37;;;;;;;;;;;18.60;65.80;;;;;;5024165;28;19913;-66
2021/09/22 08:31:03;;;;;;;;;;;18.60;65.90;;;;;;5025165;28;19920;-65
2021/09/22 08:33:28;;;;;;;;;;;18.60;65.80;;;;;;5024962;28;20310;-65
2021/09/22 08:35:54;;;;;;;;;;;18.50;65.70;;;;;;5024152;28;19917;-65
2021/09/22 08:38:19;;;;;;;;;;;18.60;65.80;;;;;;5023501;28;19924;-66
2021/09/22 08:40:45;;;;;;;;;;;18.50;65.70;;;;;;5025376;28;19924;-67
2021/09/22 08:43:11;;;;;;;;;;;18.50;66.00;;;;;;5024825;28;20583;-66
2021/09/22 08:45:36;;;;;;;;;;;18.60;65.40;;;;;;5025881;28;19917;-66
2021/09/22 08:48:02;;;;;;;;;;;18.60;65.20;;;;;;5023508;28;19914;-67
2021/09/22 08:50:28;;;;;;;;;;;18.50;65.70;;;;;;5024734;28;19921;-66
2021/09/22 08:52:53;;;;;;;;;;;18.50;65.80;;;;;;5025774;28;20248;-66
2021/09/22 08:55:18;;;;;;;;;;;18.50;65.90;;;;;;5024969;28;19914;-66
2021/09/22 08:57:44;;;;;;;;;;;18.50;65.70;;;;;;5024625;28;19936;-66
2021/09/22 09:00:10;;;;;;;;;;;18.60;65.50;;;;;;5023624;28;19932;-66
2021/09/22 09:02:40;;;;;;;;;;;18.60;65.30;;;;;;5024451;28;20928;-66
2021/09/22 09:05:09;;;;;;;;;;;18.60;65.80;;;;;;5024737;28;19917;-67
2021/09/22 09:07:45;;;;;;;;;;;18.50;65.50;;;;;;5025840;28;19914;-66
2021/09/22 09:10:11;;;;;;;;;;;18.50;65.40;;;;;;5024759;28;19921;-66
2021/09/22 09:12:36;;;;;;;;;;;18.60;65.60;;;;;;5025350;28;20543;-66
2021/09/22 09:15:06;;;;;;;;;;;18.60;64.50;;;;;;5022575;28;19920;-64
2021/09/22 09:17:36;;;;;;;;;;;18.60;65.50;;;;;;5014983;28;19921;-63
2021/09/22 09:20:09;;;;;;;;;;;18.50;65.50;;;;;;5021901;28;20334;-64
2021/09/22 09:22:34;;;;;;;;;;;18.50;65.70;;;;;;5025785;28;20540;-64
2021/09/22 09:25:00;;;;;;;;;;;18.60;65.30;;;;;;5026931;28;19959;-63
2021/09/22 09:27:26;;;;;;;;;;;18.60;64.50;;;;;;5027003;28;19913;-63
2021/09/22 09:29:54;;;;;;;;;;;18.50;65.30;;;;;;5027330;28;19913;-64
2021/09/22 09:32:20;;;;;;;;;;;18.50;65.90;;;;;;5029424;28;19913;-63
2021/09/22 09:34:59;;;;;;;;;;;18.50;65.80;;;;;;5026802;28;19943;-64
2021/09/22 09:37:29;;;;;;;;;;;18.50;65.40;;;;;;5025763;28;20694;-63
2021/09/22 09:39:54;;;;;;;;;;;18.50;64.50;;;;;;5025868;28;19953;-63
2021/09/22 09:42:19;;;;;;;;;;;18.50;64.60;;;;;;5026487;28;19927;-63
2021/09/22 09:44:45;;;;;;;;;;;18.40;62.80;;;;;;5025155;28;20532;-63
2021/09/22 09:47:10;;;;;;;;;;;18.40;64.20;;;;;;5024732;28;19925;-63
2021/09/22 09:49:37;;;;;;;;;;;18.50;64.60;;;;;;5027111;28;20004;-61
2021/09/22 09:52:03;;;;;;;;;;;18.50;64.90;;;;;;5026419;28;19913;-62
2021/09/22 09:54:29;;;;;;;;;;;18.50;64.20;;;;;;5026376;28;19913;-59
2021/09/22 09:56:56;;;;;;;;;;;18.50;64.40;;;;;;5026246;28;21647;-63
2021/09/22 09:59:24;;;;;;;;;;;18.50;64.90;;;;;;5025616;28;19917;-62
2021/09/22 10:01:50;;;;;;;;;;;18.50;64.00;;;;;;5026230;28;19917;-63
2021/09/22 10:04:16;;;;;;;;;;;18.50;64.60;;;;;;5026346;28;19967;-62
2021/09/22 10:06:43;;;;;;;;;;;18.50;64.80;;;;;;5025574;28;19921;-63
2021/09/22 10:09:08;;;;;;;;;;;18.40;64.90;;;;;;5025855;28;19948;-63
2021/09/22 10:11:34;;;;;;;;;;;18.50;64.60;;;;;;5025282;28;19956;-60
2021/09/22 10:14:00;;;;;;;;;;;18.50;64.50;;;;;;5025961;28;20343;-63
2021/09/22 10:16:26;;;;;;;;;;;18.40;65.40;;;;;;5025919;28;19927;-62
2021/09/22 10:18:51;;;;;;;;;;;18.50;66.10;;;;;;5025125;28;19924;-62
2021/09/22 10:21:18;;;;;;;;;;;18.50;63.70;;;;;;5024031;28;19936;-62
2021/09/22 10:23:43;;;;;;;;;;;18.40;64.90;;;;;;5023909;28;19924;-62
2021/09/22 10:26:09;;;;;;;;;;;18.50;64.60;;;;;;5025176;28;20283;-63
2021/09/22 10:28:35;;;;;;;;;;;18.40;64.80;;;;;;5023710;28;20101;-62
2021/09/22 10:31:01;;;;;;;;;;;18.50;64.40;;;;;;5025548;28;20375;-63
2021/09/22 10:33:27;;;;;;;;;;;18.50;64.60;;;;;;5023681;28;19924;-62
2021/09/22 10:35:56;;;;;;;;;;;18.50;64.40;;;;;;5025094;28;19924;-63
2021/09/22 10:38:21;;;;;;;;;;;18.50;64.90;;;;;;5024770;28;19941;-62
2021/09/22 10:40:53;;;;;;;;;;;18.50;63.40;;;;;;5025384;28;20398;-62
2021/09/22 10:43:19;;;;;;;;;;;18.50;64.50;;;;;;5024057;28;19998;-58
2021/09/22 10:45:45;;;;;;;;;;;18.50;63.50;;;;;;5024608;28;19960;-62
2021/09/22 10:48:20;;;;;;;;;;;18.50;64.20;;;;;;5024514;28;20173;-62
2021/09/22 10:50:52;;;;;;;;;;;18.50;64.20;;;;;;5025064;28;19917;-62
2021/09/22 10:53:33;;;;;;;;;;;18.50;64.50;;;;;;5024415;28;19919;-62
2021/09/22 10:56:02;;;;;;;;;;;18.50;65.00;;;;;;5025219;28;20387;-62
2021/09/22 10:58:31;;;;;;;;;;;18.40;62.40;;;;;;5024224;28;19917;-62
2021/09/22 11:00:56;;;;;;;;;;;18.50;64.10;;;;;;5024642;28;19938;-63
2021/09/22 11:03:41;;;;;;;;;;;18.50;63.60;;;;;;5024708;28;19924;-62
2021/09/22 11:06:27;;;;;;;;;;;18.50;63.60;;;;;;5024499;28;20008;-61
2021/09/22 11:09:02;;;;;;;;;;;18.50;63.80;;;;;;5024095;28;19921;-61
2021/09/22 11:11:47;;;;;;;;;;;18.50;63.10;;;;;;5024562;28;20016;-55
2021/09/22 11:14:29;;;;;;;;;;;18.40;64.20;;;;;;5014247;28;20374;-61
2021/09/22 11:16:55;;;;;;;;;;;18.50;64.00;;;;;;5014206;28;20128;-62
2021/09/22 11:19:21;;;;;;;;;;;18.40;64.90;;;;;;5024259;28;19913;-62
2021/09/22 11:21:47;;;;;;;;;;;18.40;64.80;;;;;;5024033;28;20328;-60
2021/09/22 11:24:14;;;;;;;;;;;18.40;65.00;;;;;;5023797;28;20000;-57
2021/09/22 11:26:52;;;;;;;;;;;18.40;64.20;;;;;;5023300;28;19921;-63
2021/09/22 11:29:37;;;;;;;;;;;18.40;65.00;;;;;;5024429;28;19921;-61
2021/09/22 11:32:03;;;;;;;;;;;18.40;64.20;;;;;;5023830;28;20399;-62
2021/09/22 11:34:29;;;;;;;;;;;18.40;64.50;;;;;;5024042;28;20312;-60
2021/09/22 11:37:08;;;;;;;;;;;18.50;62.50;;;;;;5023985;28;20555;-62
2021/09/22 11:39:34;;;;;;;;;;;18.40;64.80;;;;;;5023689;28;19913;-62
2021/09/22 11:41:59;;;;;;;;;;;18.50;63.70;;;;;;5024044;28;19920;-63
2021/09/22 11:44:28;;;;;;;;;;;18.40;64.40;;;;;;5023249;28;19914;-62
2021/09/22 11:46:54;;;;;;;;;;;18.40;64.60;;;;;;5023815;28;19921;-62
2021/09/22 11:49:19;;;;;;;;;;;18.40;63.60;;;;;;5022540;28;20419;-61
2021/09/22 11:51:44;;;;;;;;;;;18.40;64.90;;;;;;5022600;28;19913;-63
2021/09/22 11:54:17;;;;;;;;;;;18.40;62.50;;;;;;5021722;28;19923;-63
2021/09/22 11:56:43;;;;;;;;;;;18.50;62.50;;;;;;5022709;28;19913;-62
2021/09/22 11:59:11;;;;;;;;;;;18.40;64.40;;;;;;5023657;28;20395;-62
2021/09/22 12:01:37;;;;;;;;;;;18.40;64.70;;;;;;5022775;28;20239;-63
2021/09/22 12:04:02;;;;;;;;;;;18.40;64.80;;;;;;5023467;28;19913;-63
2021/09/22 12:06:28;;;;;;;;;;;18.40;63.60;;;;;;5023905;28;19921;-63
2021/09/22 12:08:53;;;;;;;;;;;18.40;64.30;;;;;;5023226;28;20184;-63
2021/09/22 12:11:19;;;;;;;;;;;18.40;64.90;;;;;;5023725;28;19928;-63
2021/09/22 12:13:48;;;;;;;;;;;18.30;65.40;;;;;;5021590;28;19936;-63
2021/09/22 12:16:16;;;;;;;;;;;18.30;65.40;;;;;;5023041;28;19921;-63
2021/09/22 12:18:44;;;;;;;;;;;18.30;65.50;;;;;;5022661;28;19923;-63
2021/09/22 12:21:09;;;;;;;;;;;18.30;65.50;;;;;;5022465;28;19984;-63
2021/09/22 12:23:34;;;;;;;;;;;18.30;65.60;;;;;;5021638;28;19932;-63
2021/09/22 12:26:08;;;;;;;;;;;18.30;65.60;;;;;;5023060;28;19925;-63
2021/09/22 12:28:33;;;;;;;;;;;18.40;64.80;;;;;;5022628;28;20396;-62
2021/09/22 12:30:59;;;;;;;;;;;18.40;63.80;;;;;;5023329;28;19939;-63
2021/09/22 12:33:24;;;;;;;;;;;18.40;64.50;;;;;;5021586;28;20273;-63
2021/09/22 12:35:50;;;;;;;;;;;18.40;64.90;;;;;;5021571;28;19921;-63
2021/09/22 12:38:16;;;;;;;;;;;18.50;64.30;;;;;;5023091;28;20249;-62
2021/09/22 12:40:46;;;;;;;;;;;18.50;64.10;;;;;;5023098;28;19928;-62
2021/09/22 12:43:23;;;;;;;;;;;18.40;63.40;;;;;;5023270;28;19932;-62
2021/09/22 12:45:49;;;;;;;;;;;18.40;63.50;;;;;;5022649;28;19925;-62
2021/09/22 12:48:21;;;;;;;;;;;18.40;64.60;;;;;;5022682;28;19913;-63
2021/09/22 12:50:47;;;;;;;;;;;18.40;65.50;;;;;;5022979;28;19952;-62
2021/09/22 12:53:13;;;;;;;;;;;18.40;63.30;;;;;;5023766;28;20030;-63
2021/09/22 12:55:39;;;;;;;;;;;18.40;64.10;;;;;;5023124;28;19988;-63
2021/09/22 12:58:05;;;;;;;;;;;18.40;64.90;;;;;;5026427;28;20000;-63
2021/09/22 13:00:30;;;;;;;;;;;18.40;65.30;;;;;;5027171;28;20615;-62
2021/09/22 13:03:14;;;;;;;;;;;18.40;65.50;;;;;;5026763;28;19921;-63
2021/09/22 13:05:41;;;;;;;;;;;18.40;65.30;;;;;;5027019;28;19924;-62
2021/09/22 13:08:08;;;;;;;;;;;18.40;64.50;;;;;;5027400;28;20380;-62
2021/09/22 13:11:09;;;;;;;;;;;18.50;64.00;;;;;;5027202;28;20392;-62
2021/09/22 13:13:36;;;;;;;;;;;18.50;63.60;;;;;;4983988;28;20300;-60
2021/09/22 13:16:10;;;;;;;;;;;18.40;64.00;;;;;;5010111;28;20443;-62
2021/09/22 13:18:35;;;;;;;;;;;18.40;64.60;;;;;;5025919;28;19917;-63
2021/09/22 13:21:01;;;;;;;;;;;18.50;64.30;;;;;;5026748;28;19913;-63
2021/09/22 13:23:26;;;;;;;;;;;18.50;64.60;;;;;;5026930;28;20384;-63
2021/09/22 13:25:52;;;;;;;;;;;18.40;64.80;;;;;;5026157;28;19949;-61
2021/09/22 13:28:17;;;;;;;;;;;18.40;64.80;;;;;;5026124;28;19917;-62
2021/09/22 13:30:42;;;;;;;;;;;18.40;65.20;;;;;;5027014;28;19913;-62
2021/09/22 13:33:08;;;;;;;;;;;18.50;64.90;;;;;;5026261;28;19936;-62
2021/09/22 13:35:33;;;;;;;;;;;18.40;65.30;;;;;;5026710;28;19928;-62
2021/09/22 13:37:59;;;;;;;;;;;18.40;64.60;;;;;;5026822;28;20586;-62
2021/09/22 13:40:24;;;;;;;;;;;18.50;64.90;;;;;;5026310;28;19917;-62
2021/09/22 13:42:50;;;;;;;;;;;18.40;65.40;;;;;;5026822;28;19916;-62
2021/09/22 13:45:16;;;;;;;;;;;18.40;64.80;;;;;;5027320;28;19966;-63
2021/09/22 13:47:41;;;;;;;;;;;18.50;64.40;;;;;;5028742;28;19913;-62
2021/09/22 13:50:07;;;;;;;;;;;18.40;62.70;;;;;;5028655;28;19917;-63
2021/09/22 13:52:32;;;;;;;;;;;18.40;64.20;;;;;;5024061;28;19920;-62
2021/09/22 13:54:57;;;;;;;;;;;18.40;64.50;;;;;;5037745;28;20571;-63
2021/09/22 13:57:23;;;;;;;;;;;18.40;64.80;;;;;;5028763;28;19944;-63
2021/09/22 13:59:48;;;;;;;;;;;18.40;65.10;;;;;;5026407;28;19928;-63
2021/09/22 14:02:14;;;;;;;;;;;18.40;65.30;;;;;;5027333;28;19917;-62
2021/09/22 14:04:39;;;;;;;;;;;18.30;66.20;;;;;;5025422;28;20295;-63
2021/09/22 14:07:05;;;;;;;;;;;18.40;65.40;;;;;;5025228;28;20645;-62
2021/09/22 14:09:30;;;;;;;;;;;18.40;64.10;;;;;;5025411;28;19919;-63
2021/09/22 14:11:55;;;;;;;;;;;18.40;65.50;;;;;;5025757;28;19913;-62